SEGU/GYE METAR and TAF weather

Enter ICAO airport designator
Station Type Date Time Source
SEGU METAR 2021/09/23 23:00 UTC NOAA

SEGU 232300Z 03005KT 020V080 9999 FEW030 29/20 Q1008 NOSIG RMK A2977


Station Type Date Time Source
SEGU Decoded METAR 2021/09/23 23:00 UTC NOAA

Guayaquil / Simon Bolivar, Ecuador (SEGU) 02-09S 079-53W 9M
Sep 23, 2021 - 07:00 PM EDT / 2021.09.23 2300 UTC
Wind: from the NNE (030 degrees) at 6 MPH (5 KT) (direction variable):0
Visibility: greater than 7 mile(s):0
Sky conditions: mostly clear
Temperature: 84 F (29 C)
Dew Point: 68 F (20 C)
Relative Humidity: 58%
Pressure (altimeter): 29.77 in. Hg (1008 hPa)
ob: SEGU 232300Z 03005KT 020V080 9999 FEW030 29/20 Q1008 NOSIG RMK A2977
cycle: 23

Station Type Date Time Source
SEGU TAF 2021/09/23 18:30 UTC NOAA

TAF TAF SEGU 231655Z 2318/2418 15008KT 9999 SCT030 SCT100
BECMG 2400/2402 22012KT BKN030 BKN100
BECMG 2404/2406 FEW013 BKN030 BKN100
BECMG 2413/2415 15008KT FEW030 SCT100 TX30/2320Z TN22/2410Z

Example: see airport list